createdAt,value
2022-12-17T00:00:36.314Z,11.4
2022-12-17T00:01:36.271Z,8.8
2022-12-17T00:02:36.374Z,7.800000000000001
2022-12-17T00:03:36.633Z,8.700000000000001
2022-12-17T00:04:36.242Z,11
2022-12-17T00:05:36.248Z,3.8000000000000003
2022-12-17T00:06:36.257Z,11.200000000000001
2022-12-17T00:07:36.248Z,14
2022-12-17T00:08:36.283Z,17.400000000000002
2022-12-17T00:09:36.251Z,13.700000000000001
2022-12-17T00:10:36.247Z,5.7
2022-12-17T00:11:36.250Z,5.300000000000001
2022-12-17T00:12:36.249Z,17.3
2022-12-17T00:13:36.575Z,12
2022-12-17T00:14:36.241Z,13.200000000000001
2022-12-17T00:15:36.256Z,12.600000000000001
2022-12-17T00:16:36.314Z,9.5
2022-12-17T00:17:36.280Z,8.5
2022-12-17T00:18:36.259Z,8.9
2022-12-17T00:19:36.246Z,14.700000000000001
2022-12-17T00:20:36.251Z,17.1
2022-12-17T00:21:36.262Z,10.5
2022-12-17T00:22:36.253Z,8.200000000000001
2022-12-17T00:23:36.577Z,6.5
2022-12-17T00:24:36.272Z,7.1000000000000005
2022-12-17T00:25:36.255Z,11.700000000000001
2022-12-17T00:26:36.254Z,11.600000000000001
2022-12-17T00:27:36.263Z,14.600000000000001
2022-12-17T00:28:36.263Z,9.8
2022-12-17T00:29:36.255Z,7.6000000000000005
2022-12-17T00:30:36.260Z,6.800000000000001
2022-12-17T00:31:36.284Z,8.1
2022-12-17T00:32:36.268Z,7.5
2022-12-17T00:33:36.772Z,11
2022-12-17T00:34:36.265Z,11.8
2022-12-17T00:35:36.271Z,9.700000000000001
2022-12-17T00:36:36.267Z,5.2
2022-12-17T00:37:36.269Z,7.1000000000000005
2022-12-17T00:38:36.275Z,6.1000000000000005
2022-12-17T00:39:36.272Z,9.3
2022-12-17T00:40:36.272Z,7.6000000000000005
2022-12-17T00:41:36.276Z,9.9
2022-12-17T00:42:36.272Z,5.5
2022-12-17T00:43:36.588Z,8.3
2022-12-17T00:44:36.275Z,6.800000000000001
2022-12-17T00:45:36.268Z,6.800000000000001
2022-12-17T00:46:36.338Z,7.5
2022-12-17T00:47:36.274Z,4.9
2022-12-17T00:48:36.518Z,8.9
2022-12-17T00:49:36.296Z,5.5
2022-12-17T00:50:36.287Z,10.700000000000001
2022-12-17T00:51:36.285Z,7.4
2022-12-17T00:52:36.270Z,9.8
2022-12-17T00:53:36.530Z,10.100000000000001
2022-12-17T00:54:36.272Z,10.5
2022-12-17T00:55:36.277Z,6.7
2022-12-17T00:56:36.284Z,9.200000000000001
2022-12-17T00:57:36.274Z,6.5
2022-12-17T00:58:36.286Z,3.6
2022-12-17T00:59:36.272Z,0
2022-12-17T01:00:36.288Z,2.9000000000000004
2022-12-17T01:01:36.469Z,4.800000000000001
2022-12-17T01:02:36.368Z,8.700000000000001
2022-12-17T01:03:36.501Z,15.100000000000001
2022-12-17T01:04:36.275Z,7.1000000000000005
2022-12-17T01:05:36.305Z,12.200000000000001
2022-12-17T01:06:36.280Z,13.5
2022-12-17T01:07:36.280Z,6.300000000000001
2022-12-17T01:08:36.288Z,6.9
2022-12-17T01:09:36.286Z,5.9
2022-12-17T01:10:36.283Z,6.4
2022-12-17T01:11:36.299Z,7.300000000000001
2022-12-17T01:12:36.294Z,4.6000000000000005
2022-12-17T01:13:36.562Z,6.5
2022-12-17T01:14:36.291Z,5
2022-12-17T01:15:36.290Z,12.4
2022-12-17T01:16:36.352Z,9.4
2022-12-17T01:17:36.295Z,6.5
2022-12-17T01:18:36.283Z,9
2022-12-17T01:19:36.326Z,8
2022-12-17T01:20:36.286Z,8.700000000000001
2022-12-17T01:21:36.313Z,7.7
2022-12-17T01:22:36.282Z,10.3
2022-12-17T01:23:36.450Z,5.9
2022-12-17T01:24:36.285Z,5.6000000000000005
2022-12-17T01:25:36.286Z,4.9
2022-12-17T01:26:36.288Z,7.6000000000000005
2022-12-17T01:27:36.286Z,9.700000000000001
2022-12-17T01:28:36.291Z,13.3
2022-12-17T01:29:36.292Z,11.200000000000001
2022-12-17T01:30:36.296Z,8.9
2022-12-17T01:31:36.320Z,9.1
2022-12-17T01:32:36.295Z,8
2022-12-17T01:33:36.514Z,6.7
2022-12-17T01:34:36.292Z,14.4
2022-12-17T01:35:36.295Z,1.9000000000000001
2022-12-17T01:36:36.293Z,7.800000000000001
2022-12-17T01:37:36.317Z,3.5
2022-12-17T01:38:36.291Z,8.8
2022-12-17T01:39:36.298Z,6.9
2022-12-17T01:40:36.293Z,13.200000000000001
2022-12-17T01:41:36.295Z,14.600000000000001
2022-12-17T01:42:36.297Z,11.8
2022-12-17T01:43:36.503Z,13
2022-12-17T01:44:36.292Z,7.4
2022-12-17T01:45:36.354Z,1.5
2022-12-17T01:46:36.297Z,5.2
2022-12-17T01:47:36.301Z,7
2022-12-17T01:48:36.299Z,11.700000000000001
2022-12-17T01:49:36.303Z,13.3
2022-12-17T01:50:36.314Z,12.600000000000001
2022-12-17T01:51:36.292Z,7.6000000000000005
2022-12-17T01:52:36.295Z,9.5
2022-12-17T01:53:36.703Z,15.4
2022-12-17T01:54:36.298Z,6.9
2022-12-17T01:55:36.297Z,10.700000000000001
2022-12-17T01:56:36.304Z,10.9
2022-12-17T01:57:36.312Z,5.1000000000000005
2022-12-17T01:58:36.289Z,8.9
2022-12-17T01:59:36.302Z,16.5
2022-12-17T02:00:36.327Z,12.100000000000001
2022-12-17T02:01:36.494Z,11.5
2022-12-17T02:02:36.421Z,5
2022-12-17T02:03:36.564Z,10
2022-12-17T02:04:36.300Z,5.300000000000001
2022-12-17T02:05:36.305Z,6.6000000000000005
2022-12-17T02:06:36.300Z,6.6000000000000005
2022-12-17T02:07:36.353Z,10.200000000000001
2022-12-17T02:08:36.312Z,6.7
2022-12-17T02:09:36.325Z,11.3
2022-12-17T02:10:36.308Z,3.3000000000000003
2022-12-17T02:11:36.304Z,9.600000000000001
2022-12-17T02:12:36.305Z,7.7
2022-12-17T02:13:36.526Z,6.800000000000001
2022-12-17T02:14:36.303Z,8.1
2022-12-17T02:15:36.307Z,10.100000000000001
2022-12-17T02:16:36.340Z,15.4
2022-12-17T02:17:36.296Z,8
2022-12-17T02:18:36.296Z,13
2022-12-17T02:19:36.297Z,20
2022-12-17T02:20:36.298Z,20.400000000000002
2022-12-17T02:21:36.306Z,12.8
2022-12-17T02:22:36.307Z,6.6000000000000005
2022-12-17T02:23:36.813Z,3.5
2022-12-17T02:24:36.307Z,13
2022-12-17T02:25:36.328Z,9
2022-12-17T02:26:36.293Z,8.700000000000001
2022-12-17T02:27:36.303Z,6.5
2022-12-17T02:28:36.310Z,9.5
2022-12-17T02:29:36.315Z,19.900000000000002
2022-12-17T02:30:36.309Z,9.4
2022-12-17T02:31:36.330Z,15.600000000000001
2022-12-17T02:32:36.307Z,10.5
2022-12-17T02:33:36.611Z,14.9
2022-12-17T02:34:36.309Z,17.7
2022-12-17T02:35:36.308Z,13
2022-12-17T02:36:36.309Z,7.5
2022-12-17T02:37:36.315Z,4.7
2022-12-17T02:38:36.308Z,3.5
2022-12-17T02:39:36.332Z,7.7
2022-12-17T02:40:36.299Z,9.4
2022-12-17T02:41:36.446Z,8.1
2022-12-17T02:42:36.313Z,7
2022-12-17T02:43:36.563Z,9.5
2022-12-17T02:44:36.312Z,15.8
2022-12-17T02:45:36.359Z,9
2022-12-17T02:46:36.309Z,11.200000000000001
2022-12-17T02:47:36.311Z,10.3
2022-12-17T02:48:36.317Z,10.8
2022-12-17T02:49:36.308Z,12.100000000000001
2022-12-17T02:50:36.310Z,10.4
2022-12-17T02:51:36.311Z,12
2022-12-17T02:52:36.313Z,9.200000000000001
2022-12-17T02:53:36.508Z,6.7
2022-12-17T02:54:36.318Z,10.700000000000001
2022-12-17T02:55:36.311Z,8.9
2022-12-17T02:56:36.330Z,7.1000000000000005
2022-12-17T02:57:38.080Z,11.600000000000001
2022-12-17T02:58:36.316Z,8.8
2022-12-17T02:59:36.306Z,11.3
2022-12-17T03:00:36.315Z,9.1
2022-12-17T03:01:36.477Z,16.2
2022-12-17T03:02:36.454Z,11.100000000000001
2022-12-17T03:03:36.737Z,11.4
2022-12-17T03:04:36.336Z,10.8
2022-12-17T03:05:44.830Z,15.100000000000001
2022-12-17T03:06:36.330Z,8.700000000000001
2022-12-17T03:07:36.321Z,3.7
2022-12-17T03:08:36.320Z,12.700000000000001
2022-12-17T03:09:36.334Z,9.4
2022-12-17T03:10:36.331Z,15.700000000000001
2022-12-17T03:11:36.337Z,6.800000000000001
2022-12-17T03:12:36.333Z,10.4
2022-12-17T03:13:36.530Z,11.9
2022-12-17T03:14:36.334Z,6.4
2022-12-17T03:15:36.328Z,8.4
2022-12-17T03:16:37.837Z,10.8
2022-12-17T03:17:36.333Z,10.9
2022-12-17T03:18:36.335Z,7.5
2022-12-17T03:19:36.337Z,12.200000000000001
2022-12-17T03:20:36.339Z,7.4
2022-12-17T03:21:36.338Z,11.100000000000001
2022-12-17T03:22:36.348Z,14.600000000000001
2022-12-17T03:23:36.695Z,10.600000000000001
2022-12-17T03:24:36.338Z,11.600000000000001
2022-12-17T03:25:36.339Z,15.700000000000001
2022-12-17T03:26:36.343Z,14.100000000000001
2022-12-17T03:27:36.343Z,11.200000000000001
2022-12-17T03:28:36.356Z,13.4
2022-12-17T03:29:36.439Z,9.600000000000001
2022-12-17T03:30:37.865Z,8.3
2022-12-17T03:31:36.413Z,11.9
2022-12-17T03:32:36.348Z,15.600000000000001
2022-12-17T03:33:36.701Z,23.6
2022-12-17T03:34:36.359Z,17
2022-12-17T03:35:36.351Z,11.100000000000001
2022-12-17T03:36:36.358Z,9.4
2022-12-17T03:37:36.356Z,10
2022-12-17T03:38:36.355Z,12
2022-12-17T03:39:36.365Z,10.100000000000001
2022-12-17T03:40:36.385Z,15.700000000000001
2022-12-17T03:41:36.356Z,12.200000000000001
2022-12-17T03:42:36.360Z,9.4
2022-12-17T03:43:36.695Z,11.5
2022-12-17T03:44:36.357Z,10
2022-12-17T03:45:36.452Z,14.8
2022-12-17T03:46:36.411Z,11.200000000000001
2022-12-17T03:47:36.360Z,5.800000000000001
2022-12-17T03:48:36.354Z,11.700000000000001
2022-12-17T03:49:36.355Z,9.5
2022-12-17T03:50:36.369Z,17.400000000000002
2022-12-17T03:51:36.371Z,11.3
2022-12-17T03:52:36.367Z,12.9
2022-12-17T03:53:36.627Z,16.900000000000002
2022-12-17T03:54:36.376Z,17.8
2022-12-17T03:55:36.376Z,10
2022-12-17T03:56:36.372Z,7.1000000000000005
2022-12-17T03:57:36.372Z,14.100000000000001
2022-12-17T03:58:36.370Z,6.7
2022-12-17T03:59:36.379Z,5.800000000000001
2022-12-17T04:00:36.370Z,10.700000000000001
2022-12-17T04:01:36.493Z,10.4
2022-12-17T04:02:36.500Z,11.700000000000001
2022-12-17T04:03:36.651Z,10.9
2022-12-17T04:04:36.378Z,8.6
2022-12-17T04:05:36.376Z,3.9000000000000004
2022-12-17T04:06:36.378Z,6.9
2022-12-17T04:07:36.381Z,8.3
2022-12-17T04:08:36.379Z,7.4
2022-12-17T04:09:36.386Z,8.8
2022-12-17T04:10:36.383Z,9.4
2022-12-17T04:11:36.378Z,6
2022-12-17T04:12:36.376Z,7.1000000000000005
2022-12-17T04:13:40.604Z,12
2022-12-17T04:14:36.380Z,7
2022-12-17T04:15:36.414Z,4.1000000000000005
2022-12-17T04:16:36.387Z,4.7
2022-12-17T04:17:36.398Z,10.9
2022-12-17T04:18:36.380Z,12.5
2022-12-17T04:19:36.431Z,11.4
2022-12-17T04:20:36.377Z,4.5
2022-12-17T04:21:36.382Z,7.2
2022-12-17T04:22:36.393Z,6.9
2022-12-17T04:23:36.719Z,8.3
2022-12-17T04:24:36.386Z,7.300000000000001
2022-12-17T04:25:36.384Z,7.9
2022-12-17T04:26:36.404Z,12.3
2022-12-17T04:27:36.384Z,9.1
2022-12-17T04:28:36.393Z,10.600000000000001
2022-12-17T04:29:36.384Z,6.4
2022-12-17T04:30:36.393Z,6.4
2022-12-17T04:31:36.484Z,7.2
2022-12-17T04:32:36.394Z,9.200000000000001
2022-12-17T04:33:36.698Z,11.200000000000001
2022-12-17T04:34:36.386Z,6.7
2022-12-17T04:35:36.396Z,6.300000000000001
2022-12-17T04:36:36.396Z,10
2022-12-17T04:37:36.385Z,8.4
2022-12-17T04:38:36.445Z,4.7
2022-12-17T04:39:36.388Z,7.6000000000000005
2022-12-17T04:40:36.387Z,7.7
2022-12-17T04:41:36.389Z,13.8
2022-12-17T04:42:36.396Z,10.9
2022-12-17T04:43:36.726Z,13.8
2022-12-17T04:44:36.396Z,7.6000000000000005
2022-12-17T04:45:36.396Z,6.2
2022-12-17T04:46:36.470Z,9.3
2022-12-17T04:47:36.395Z,12.100000000000001
2022-12-17T04:48:36.402Z,6.2
2022-12-17T04:49:36.409Z,4.7
2022-12-17T04:50:36.402Z,12
2022-12-17T04:51:36.401Z,9.8
2022-12-17T04:52:36.406Z,15.200000000000001
2022-12-17T04:53:36.677Z,9.5
2022-12-17T04:54:36.395Z,9.5
2022-12-17T04:55:36.398Z,12.5
2022-12-17T04:56:36.401Z,6.6000000000000005
2022-12-17T04:57:36.401Z,11.5
2022-12-17T04:58:36.398Z,7.800000000000001
2022-12-17T04:59:36.402Z,9.4
2022-12-17T05:00:36.410Z,6.2
2022-12-17T05:01:36.520Z,8.700000000000001
2022-12-17T05:02:41.027Z,10.5
2022-12-17T05:03:36.762Z,10.200000000000001
2022-12-17T05:04:36.399Z,8.9
2022-12-17T05:05:36.596Z,11.9
2022-12-17T05:06:36.404Z,14.600000000000001
2022-12-17T05:07:36.402Z,13.200000000000001
2022-12-17T05:08:41.169Z,12.9
2022-12-17T05:09:36.404Z,9.200000000000001
2022-12-17T05:10:36.402Z,7.2
2022-12-17T05:11:36.410Z,8.4
2022-12-17T05:12:36.398Z,10.700000000000001
2022-12-17T05:13:36.690Z,12.3
2022-12-17T05:14:36.403Z,9.700000000000001
2022-12-17T05:15:36.473Z,5.4
2022-12-17T05:16:36.408Z,9.1
2022-12-17T05:17:36.421Z,10.4
2022-12-17T05:18:36.415Z,13.600000000000001
2022-12-17T05:19:36.403Z,9.9
2022-12-17T05:20:36.411Z,5.800000000000001
2022-12-17T05:21:36.428Z,10.200000000000001
2022-12-17T05:22:36.412Z,7.9
2022-12-17T05:23:36.593Z,11.700000000000001
2022-12-17T05:24:36.460Z,10.100000000000001
2022-12-17T05:25:36.416Z,11
2022-12-17T05:26:36.404Z,13.3
2022-12-17T05:27:36.418Z,10.200000000000001
2022-12-17T05:28:36.406Z,9.3
2022-12-17T05:29:36.416Z,9
2022-12-17T05:30:36.417Z,9.8
2022-12-17T05:31:36.461Z,8.9
2022-12-17T05:32:36.421Z,7.1000000000000005
2022-12-17T05:33:36.670Z,10.200000000000001
2022-12-17T05:34:36.419Z,10.700000000000001
2022-12-17T05:35:36.412Z,9.8
2022-12-17T05:36:36.415Z,10.100000000000001
2022-12-17T05:37:36.449Z,11.200000000000001
2022-12-17T05:38:36.424Z,11.600000000000001
2022-12-17T05:39:36.422Z,11.4
2022-12-17T05:40:36.419Z,4.9
2022-12-17T05:41:36.424Z,10.3
2022-12-17T05:42:36.419Z,6.6000000000000005
2022-12-17T05:43:36.766Z,10.9
2022-12-17T05:44:36.416Z,8.1
2022-12-17T05:45:36.417Z,6.800000000000001
2022-12-17T05:46:36.480Z,14.100000000000001
2022-12-17T05:47:36.423Z,10.700000000000001
2022-12-17T05:48:36.424Z,16.7
2022-12-17T05:49:36.415Z,10.8
2022-12-17T05:50:36.417Z,18
2022-12-17T05:51:38.780Z,12.700000000000001
2022-12-17T05:52:36.462Z,12.4
2022-12-17T05:53:36.812Z,9
2022-12-17T05:54:36.420Z,7.2
2022-12-17T05:55:36.421Z,10.8
2022-12-17T05:56:36.433Z,16.7
2022-12-17T05:57:36.432Z,10.600000000000001
2022-12-17T05:58:36.430Z,10.3
2022-12-17T05:59:36.422Z,19.200000000000003
2022-12-17T06:00:36.424Z,6.5
2022-12-17T06:01:36.457Z,11.200000000000001
2022-12-17T06:02:36.570Z,19.5
2022-12-17T06:03:36.819Z,12.100000000000001
2022-12-17T06:04:36.465Z,10.600000000000001
2022-12-17T06:05:36.429Z,12.5
2022-12-17T06:06:36.423Z,11.200000000000001
2022-12-17T06:07:36.434Z,8.5
2022-12-17T06:08:36.445Z,12.100000000000001
2022-12-17T06:09:36.467Z,12.5
2022-12-17T06:10:36.431Z,12.5
2022-12-17T06:11:36.434Z,7.6000000000000005
2022-12-17T06:12:36.434Z,9.3
2022-12-17T06:13:36.673Z,10.100000000000001
2022-12-17T06:14:36.444Z,12.4
2022-12-17T06:15:36.473Z,13.600000000000001
2022-12-17T06:16:36.487Z,10.700000000000001
2022-12-17T06:17:36.451Z,23.8
2022-12-17T06:18:36.447Z,8.6
2022-12-17T06:19:36.450Z,3.9000000000000004
2022-12-17T06:20:36.452Z,13.100000000000001
2022-12-17T06:21:36.448Z,11.9
2022-12-17T06:22:36.453Z,4.3
2022-12-17T06:23:36.718Z,3.2
2022-12-17T06:24:39.129Z,13.9
2022-12-17T06:25:36.482Z,14
2022-12-17T06:26:36.458Z,19.200000000000003
2022-12-17T06:27:36.456Z,15.8
2022-12-17T06:28:36.512Z,17.5
2022-12-17T06:29:36.462Z,10.100000000000001
2022-12-17T06:30:36.461Z,16.5
2022-12-17T06:31:36.534Z,19.400000000000002
2022-12-17T06:32:36.466Z,20.700000000000003
2022-12-17T06:33:36.765Z,15.5
2022-12-17T06:34:36.478Z,15
2022-12-17T06:35:36.462Z,21.1
2022-12-17T06:36:36.477Z,18.400000000000002
2022-12-17T06:37:36.511Z,16.400000000000002
2022-12-17T06:38:36.489Z,15.700000000000001
2022-12-17T06:39:36.482Z,19
2022-12-17T06:40:36.466Z,17.7
2022-12-17T06:41:36.574Z,16.400000000000002
2022-12-17T06:42:36.476Z,24.200000000000003
2022-12-17T06:43:36.685Z,15.5
2022-12-17T06:44:36.486Z,16.400000000000002
2022-12-17T06:45:36.474Z,20.200000000000003
2022-12-17T06:46:36.557Z,19.200000000000003
2022-12-17T06:47:36.548Z,18.7
2022-12-17T06:48:36.488Z,17.7
2022-12-17T06:49:36.529Z,19.700000000000003
2022-12-17T06:50:36.479Z,21
2022-12-17T06:51:36.486Z,23.8
2022-12-17T06:52:36.484Z,25
2022-12-17T06:53:36.789Z,19.8
2022-12-17T06:54:36.504Z,17.900000000000002
2022-12-17T06:55:36.484Z,14.5
2022-12-17T06:56:36.492Z,17.7
2022-12-17T06:57:40.771Z,13.5
2022-12-17T06:58:36.496Z,8.700000000000001
2022-12-17T06:59:36.491Z,9.9
2022-12-17T07:00:36.575Z,7.300000000000001
2022-12-17T07:01:36.753Z,4.7
2022-12-17T07:02:36.672Z,6.7
2022-12-17T07:03:36.847Z,10.100000000000001
2022-12-17T07:04:36.510Z,10.9
2022-12-17T07:05:36.518Z,6.300000000000001
2022-12-17T07:06:36.513Z,13.700000000000001
2022-12-17T07:07:36.512Z,8.1
2022-12-17T07:08:36.506Z,7.2
2022-12-17T07:09:36.523Z,4.2
2022-12-17T07:10:36.511Z,8.1
2022-12-17T07:11:36.569Z,11
2022-12-17T07:12:36.516Z,15.100000000000001
2022-12-17T07:13:36.931Z,7
2022-12-17T07:14:36.509Z,6.4
2022-12-17T07:15:36.505Z,12.200000000000001
2022-12-17T07:16:36.589Z,4.2
2022-12-17T07:17:36.516Z,4.5
2022-12-17T07:18:36.523Z,5.7
2022-12-17T07:19:36.523Z,8.3
2022-12-17T07:20:36.529Z,7.2
2022-12-17T07:21:36.517Z,10.5
2022-12-17T07:22:36.535Z,8.3
2022-12-17T07:23:36.843Z,7.2
2022-12-17T07:24:36.541Z,4.7
2022-12-17T07:25:38.532Z,6
2022-12-17T07:26:36.531Z,10.8
2022-12-17T07:27:36.528Z,11
2022-12-17T07:28:36.525Z,9.8
2022-12-17T07:29:36.571Z,9.4
2022-12-17T07:30:36.587Z,8.1
2022-12-17T07:31:36.569Z,6.9
2022-12-17T07:32:36.559Z,9
2022-12-17T07:33:36.942Z,6.2
2022-12-17T07:34:36.557Z,5
2022-12-17T07:35:36.539Z,8.6
2022-12-17T07:36:36.544Z,9.1
2022-12-17T07:37:36.545Z,16.3
2022-12-17T07:38:36.561Z,6.2
2022-12-17T07:39:36.539Z,5.9
2022-12-17T07:40:36.546Z,2.1
2022-12-17T07:41:36.544Z,2.8000000000000003
2022-12-17T07:42:36.544Z,7.1000000000000005
2022-12-17T07:43:36.875Z,14.3
2022-12-17T07:44:36.554Z,9.9
2022-12-17T07:45:36.636Z,7.5
2022-12-17T07:46:36.557Z,9.1
2022-12-17T07:47:36.563Z,4.3
2022-12-17T07:48:36.555Z,13
2022-12-17T07:49:36.567Z,4.4
2022-12-17T07:50:36.559Z,2.7
2022-12-17T07:51:36.551Z,7
2022-12-17T07:52:36.558Z,5.6000000000000005
2022-12-17T07:53:36.921Z,8
2022-12-17T07:54:36.563Z,8.8
2022-12-17T07:55:36.566Z,9.3
2022-12-17T07:56:36.563Z,10.5
2022-12-17T07:57:36.574Z,5.4
2022-12-17T07:58:36.565Z,0.7000000000000001
2022-12-17T07:59:36.614Z,2.9000000000000004
2022-12-17T08:00:36.561Z,5.9
2022-12-17T08:01:36.717Z,6.5
2022-12-17T08:02:36.834Z,6.9
2022-12-17T08:03:37.060Z,8.4
2022-12-17T08:04:36.574Z,8.6
2022-12-17T08:05:36.574Z,2.2
2022-12-17T08:06:36.574Z,9.5
2022-12-17T08:07:36.576Z,9.1
2022-12-17T08:08:36.579Z,2
2022-12-17T08:09:36.571Z,4.2
2022-12-17T08:10:36.610Z,3.6
2022-12-17T08:11:36.606Z,9.3
2022-12-17T08:12:36.607Z,2.6
2022-12-17T08:13:36.964Z,3.1
2022-12-17T08:14:36.580Z,3.2
2022-12-17T08:15:36.564Z,4.4
2022-12-17T08:16:36.664Z,8.4
2022-12-17T08:17:36.604Z,10.3
2022-12-17T08:18:36.576Z,9.5
2022-12-17T08:19:36.574Z,4.9
2022-12-17T08:20:36.582Z,6.4
2022-12-17T08:21:36.581Z,4
2022-12-17T08:22:36.609Z,2.8000000000000003
2022-12-17T08:23:36.868Z,0.9
2022-12-17T08:24:36.578Z,3.5
2022-12-17T08:25:36.591Z,5
2022-12-17T08:26:36.573Z,12.100000000000001
2022-12-17T08:27:36.584Z,7.7
2022-12-17T08:28:51.856Z,7.2
2022-12-17T08:29:36.579Z,7.7
2022-12-17T08:30:36.598Z,6
2022-12-17T08:31:36.587Z,3.8000000000000003
2022-12-17T08:32:36.621Z,4.3
2022-12-17T08:33:36.891Z,6.6000000000000005
2022-12-17T08:34:36.584Z,3.8000000000000003
2022-12-17T08:35:36.585Z,3.2
2022-12-17T08:36:36.606Z,7.2
2022-12-17T08:37:36.598Z,2.3000000000000003
2022-12-17T08:38:36.660Z,4.3
2022-12-17T08:39:36.601Z,7.9
2022-12-17T08:40:36.590Z,5.4
2022-12-17T08:41:36.586Z,7.2
2022-12-17T08:42:36.599Z,9.200000000000001
2022-12-17T08:43:36.890Z,6.5
2022-12-17T08:44:36.591Z,5.2
2022-12-17T08:45:36.628Z,1.7000000000000002
2022-12-17T08:46:36.622Z,7.6000000000000005
2022-12-17T08:47:36.594Z,3.6
2022-12-17T08:48:36.607Z,4.7
2022-12-17T08:49:36.705Z,6.7
2022-12-17T08:50:36.599Z,9.3
2022-12-17T08:51:36.605Z,12.4
2022-12-17T08:52:36.600Z,11.700000000000001
2022-12-17T08:53:37.072Z,5.4
2022-12-17T08:54:36.611Z,3.3000000000000003
2022-12-17T08:55:36.613Z,4.800000000000001
2022-12-17T08:56:36.614Z,3.9000000000000004
2022-12-17T08:57:36.602Z,7
2022-12-17T08:58:36.601Z,4.9
2022-12-17T08:59:36.609Z,3.3000000000000003
2022-12-17T09:00:36.619Z,4.9
2022-12-17T09:01:36.738Z,8.200000000000001
2022-12-17T09:02:36.685Z,5.300000000000001
2022-12-17T09:03:37.040Z,1.9000000000000001
2022-12-17T09:04:36.614Z,2.9000000000000004
2022-12-17T09:05:36.634Z,5.6000000000000005
2022-12-17T09:06:39.205Z,4.5
2022-12-17T09:07:36.631Z,6.2
2022-12-17T09:08:36.609Z,5
2022-12-17T09:09:36.610Z,7.800000000000001
2022-12-17T09:10:36.611Z,5
2022-12-17T09:11:36.612Z,4.7
2022-12-17T09:12:36.631Z,5.6000000000000005
2022-12-17T09:13:36.952Z,2.5
2022-12-17T09:14:36.612Z,4
2022-12-17T09:15:36.626Z,4.2
2022-12-17T09:16:36.640Z,7.800000000000001
2022-12-17T09:17:36.620Z,9.3
2022-12-17T09:18:36.617Z,8.4
2022-12-17T09:19:36.620Z,6.1000000000000005
2022-12-17T09:20:36.623Z,6.2
2022-12-17T09:21:36.649Z,8.200000000000001
2022-12-17T09:22:36.629Z,7.300000000000001
2022-12-17T09:23:36.898Z,3.5
2022-12-17T09:24:36.623Z,6.2
2022-12-17T09:25:36.668Z,6.4
2022-12-17T09:26:36.627Z,3.6
2022-12-17T09:27:36.683Z,6.4
2022-12-17T09:28:36.622Z,2.4000000000000004
2022-12-17T09:29:36.678Z,2.9000000000000004
2022-12-17T09:30:36.650Z,4.9
2022-12-17T09:31:37.595Z,7.2
2022-12-17T09:32:36.626Z,6
2022-12-17T09:33:36.949Z,3.4000000000000004
2022-12-17T09:34:36.668Z,4.7
2022-12-17T09:35:36.632Z,3.5
2022-12-17T09:36:36.627Z,2.5
2022-12-17T09:37:36.655Z,1.5
2022-12-17T09:38:36.637Z,3.9000000000000004
2022-12-17T09:39:36.645Z,3.4000000000000004
2022-12-17T09:40:36.626Z,6.2
2022-12-17T09:41:36.630Z,0
2022-12-17T09:42:36.622Z,4.9
2022-12-17T09:43:36.848Z,8.6
2022-12-17T09:44:36.626Z,6.7
2022-12-17T09:45:36.638Z,3
2022-12-17T09:46:36.685Z,5.7
2022-12-17T09:47:36.638Z,2.6
2022-12-17T09:48:36.638Z,7.7
2022-12-17T09:49:36.644Z,2.8000000000000003
2022-12-17T09:50:36.646Z,6.800000000000001
2022-12-17T09:51:36.637Z,4.5
2022-12-17T09:52:36.654Z,7.800000000000001
2022-12-17T09:53:37.088Z,7.7
2022-12-17T09:54:36.636Z,6.1000000000000005
2022-12-17T09:55:36.641Z,5.9
2022-12-17T09:56:36.641Z,5
2022-12-17T09:57:36.631Z,7
2022-12-17T09:58:36.649Z,3.7
2022-12-17T09:59:36.644Z,4.3
2022-12-17T10:00:36.642Z,5.300000000000001
2022-12-17T10:01:36.711Z,3.7
2022-12-17T10:02:36.815Z,4.800000000000001
2022-12-17T10:03:37.020Z,3.2
2022-12-17T10:04:36.630Z,4.1000000000000005
2022-12-17T10:05:36.631Z,5.2
2022-12-17T10:06:36.669Z,4.5
2022-12-17T10:07:36.651Z,5.2
2022-12-17T10:08:36.696Z,4.5
2022-12-17T10:09:36.670Z,2.3000000000000003
2022-12-17T10:10:36.640Z,3.1
2022-12-17T10:11:36.642Z,4.7
2022-12-17T10:12:36.641Z,8
2022-12-17T10:13:37.013Z,5.1000000000000005
2022-12-17T10:14:36.640Z,3.7
2022-12-17T10:15:36.673Z,6.6000000000000005
2022-12-17T10:16:36.642Z,3.6
2022-12-17T10:17:36.648Z,4.2
2022-12-17T10:18:36.643Z,7.1000000000000005
2022-12-17T10:19:36.644Z,4.7
2022-12-17T10:20:36.652Z,5.1000000000000005
2022-12-17T10:21:36.674Z,2.9000000000000004
2022-12-17T10:22:39.099Z,3.6
2022-12-17T10:23:37.008Z,2.9000000000000004
2022-12-17T10:24:36.655Z,0
2022-12-17T10:25:36.680Z,0
2022-12-17T10:26:36.652Z,0
2022-12-17T10:27:36.658Z,0
2022-12-17T10:28:36.649Z,0
2022-12-17T10:29:36.660Z,0
2022-12-17T10:30:36.676Z,0
2022-12-17T10:31:36.734Z,5.5
2022-12-17T10:32:36.717Z,4
2022-12-17T10:33:36.950Z,4.6000000000000005
2022-12-17T10:34:36.667Z,0
2022-12-17T10:35:36.677Z,3
2022-12-17T10:36:36.670Z,4.7
2022-12-17T10:37:36.666Z,1.5
2022-12-17T10:38:36.670Z,0
2022-12-17T10:39:36.674Z,0
2022-12-17T10:40:36.725Z,0
2022-12-17T10:41:36.896Z,0
2022-12-17T10:42:36.675Z,0
2022-12-17T10:43:36.903Z,0
2022-12-17T10:44:36.675Z,0
2022-12-17T10:45:36.674Z,0
2022-12-17T10:46:36.810Z,0
2022-12-17T10:47:36.680Z,0
2022-12-17T10:48:36.683Z,0
2022-12-17T10:49:36.680Z,0
2022-12-17T10:50:36.688Z,0
2022-12-17T10:51:36.732Z,0
2022-12-17T10:52:36.685Z,0
2022-12-17T10:53:37.002Z,0
2022-12-17T10:54:36.698Z,0
2022-12-17T10:55:36.685Z,0
2022-12-17T10:56:36.693Z,0
2022-12-17T10:57:36.731Z,0
2022-12-17T10:58:36.699Z,0
2022-12-17T10:59:36.741Z,0
2022-12-17T11:00:36.721Z,0
2022-12-17T11:01:36.817Z,0
2022-12-17T11:02:36.884Z,0
2022-12-17T11:03:37.104Z,0
2022-12-17T11:04:36.708Z,0
2022-12-17T11:05:36.721Z,0
2022-12-17T11:06:41.966Z,0
2022-12-17T11:07:36.714Z,0
2022-12-17T11:08:37.036Z,0
2022-12-17T11:09:36.715Z,0
2022-12-17T11:10:36.709Z,0
2022-12-17T11:11:36.772Z,0
2022-12-17T11:12:36.733Z,0
2022-12-17T11:13:37.083Z,0
2022-12-17T11:14:36.784Z,0
2022-12-17T11:15:36.826Z,0
2022-12-17T11:16:36.731Z,0
2022-12-17T11:17:36.728Z,0
2022-12-17T11:18:36.726Z,0
2022-12-17T11:19:36.728Z,0
2022-12-17T11:20:36.738Z,0
2022-12-17T11:21:36.731Z,0
2022-12-17T11:22:36.732Z,0
2022-12-17T11:23:37.001Z,0
2022-12-17T11:24:36.731Z,0
2022-12-17T11:25:36.796Z,0
2022-12-17T11:26:36.752Z,0
2022-12-17T11:27:36.751Z,0
2022-12-17T11:28:36.748Z,0
2022-12-17T11:29:36.777Z,0
2022-12-17T11:30:36.748Z,0
2022-12-17T11:31:36.849Z,0
2022-12-17T11:32:36.758Z,0
2022-12-17T11:33:37.014Z,0
2022-12-17T11:34:36.753Z,0
2022-12-17T11:35:36.770Z,0
2022-12-17T11:36:38.927Z,0
2022-12-17T11:37:36.762Z,0
2022-12-17T11:38:37.286Z,0
2022-12-17T11:39:36.769Z,0
2022-12-17T11:40:36.776Z,0
2022-12-17T11:41:36.770Z,0
2022-12-17T11:42:36.773Z,0
2022-12-17T11:43:36.769Z,0
2022-12-17T11:44:36.778Z,0
2022-12-17T11:45:36.853Z,0
2022-12-17T11:46:36.806Z,0
2022-12-17T11:47:36.784Z,0
2022-12-17T11:48:37.084Z,0
2022-12-17T11:49:36.785Z,0
2022-12-17T11:50:36.780Z,0
2022-12-17T11:51:36.789Z,0
2022-12-17T11:52:36.815Z,0
2022-12-17T11:53:36.795Z,0
2022-12-17T11:54:36.785Z,0
2022-12-17T11:55:36.787Z,0
2022-12-17T11:56:36.792Z,0
2022-12-17T11:57:36.800Z,0
2022-12-17T11:58:37.201Z,0
2022-12-17T11:59:36.796Z,0